Time;durP1;ratioP1;P1;durP2;ratioP2;P2;SDS_P1;SDS_P2;PMS_P1;PMS_P2;Temp;Humidity;BMP_temperature;BMP_pressure;BME280_temperature;BME280_humidity;BME280_pressure;Samples;Min_cycle;Max_cycle;Signal;HPM_P1;HPM_P2
2021/04/03 00:01:48;;;;;;;17.42;10.63;;;6.00;68.80;;;;;;6267774;28;20080;-78
2021/04/03 00:04:50;;;;;;;13.75;9.43;;;5.90;68.90;;;;;;6273421;28;20523;-78
2021/04/03 00:07:52;;;;;;;11.70;10.50;;;5.90;69.20;;;;;;6262484;28;20499;-77
2021/04/03 00:10:56;;;;;;;15.50;10.75;;;5.90;69.20;;;;;;6268601;28;20145;-78
2021/04/03 00:13:58;;;;;;;15.20;11.13;;;6.00;69.30;;;;;;6279339;28;20507;-78
2021/04/03 00:16:59;;;;;;;17.42;11.23;;;6.00;69.10;;;;;;6263897;28;20049;-78
2021/04/03 00:20:01;;;;;;;16.40;14.20;;;6.00;68.80;;;;;;6260514;28;20088;-78
2021/04/03 00:23:03;;;;;;;14.15;11.70;;;6.00;69.10;;;;;;6273667;28;20127;-78
2021/04/03 00:26:05;;;;;;;14.60;11.07;;;6.10;69.20;;;;;;6266510;28;20050;-78
2021/04/03 00:29:06;;;;;;;16.83;9.73;;;6.10;69.30;;;;;;6267184;28;20124;-79
2021/04/03 00:32:08;;;;;;;15.20;8.27;;;6.20;69.50;;;;;;6275468;28;20486;-78
2021/04/03 00:35:12;;;;;;;14.77;10.30;;;6.30;69.60;;;;;;6258937;28;20136;-78
2021/04/03 00:38:14;;;;;;;11.68;8.20;;;6.40;69.20;;;;;;6254756;28;20450;-78
2021/04/03 00:41:15;;;;;;;12.48;9.27;;;6.40;68.80;;;;;;6268101;28;20139;-78
2021/04/03 00:44:16;;;;;;;13.48;9.20;;;6.40;68.60;;;;;;6263118;28;20052;-78
2021/04/03 00:47:18;;;;;;;12.50;8.98;;;6.50;68.70;;;;;;6264203;28;20072;-79
2021/04/03 00:50:24;;;;;;;22.75;9.48;;;6.60;68.80;;;;;;6262859;28;20491;-78
2021/04/03 00:53:26;;;;;;;10.40;9.18;;;6.70;68.90;;;;;;6270928;28;20565;-78
2021/04/03 00:56:28;;;;;;;15.43;10.00;;;6.70;69.10;;;;;;6269336;28;20045;-78
2021/04/03 00:59:29;;;;;;;14.15;10.80;;;6.70;69.30;;;;;;6262628;28;20167;-78
2021/04/03 01:02:31;;;;;;;14.65;8.82;;;6.70;69.10;;;;;;6273654;28;20077;-78
2021/04/03 01:05:33;;;;;;;17.95;8.93;;;6.70;68.80;;;;;;6247106;23;20073;-77
2021/04/03 01:08:35;;;;;;;11.23;8.48;;;6.70;69.00;;;;;;6239194;28;20047;-76
2021/04/03 01:11:44;;;;;;;15.88;8.32;;;6.70;69.10;;;;;;6268721;28;20052;-76
2021/04/03 01:14:54;;;;;;;10.80;8.35;;;6.70;68.80;;;;;;6260643;28;20128;-76
2021/04/03 01:18:05;;;;;;;11.02;7.22;;;6.70;68.60;;;;;;6264158;28;20041;-77
2021/04/03 01:21:13;;;;;;;18.02;8.18;;;6.70;68.50;;;;;;6263596;28;20055;-77
2021/04/03 01:24:29;;;;;;;11.02;7.53;;;6.80;68.50;;;;;;6251748;28;20132;-77
2021/04/03 01:27:30;;;;;;;15.40;7.53;;;6.80;68.00;;;;;;6263283;28;20053;-76
2021/04/03 01:30:35;;;;;;;14.40;8.50;;;6.80;67.60;;;;;;6247471;28;20080;-77
2021/04/03 01:33:42;;;;;;;10.32;7.30;;;6.80;67.50;;;;;;6263223;28;20123;-77
2021/04/03 01:36:44;;;;;;;13.23;7.13;;;6.70;67.50;;;;;;6262894;28;20468;-76
2021/04/03 01:39:48;;;;;;;10.45;7.32;;;6.70;68.00;;;;;;6255696;28;20184;-77
2021/04/03 01:42:54;;;;;;;13.82;8.60;;;6.70;68.50;;;;;;6262596;28;20084;-76
2021/04/03 01:45:57;;;;;;;12.40;8.57;;;6.60;68.80;;;;;;6254853;28;20050;-76
2021/04/03 01:49:01;;;;;;;8.77;7.35;;;6.50;69.70;;;;;;6246600;28;20052;-76
2021/04/03 01:52:03;;;;;;;13.68;8.07;;;6.40;70.30;;;;;;6254624;28;20540;-76
2021/04/03 01:55:09;;;;;;;13.07;8.57;;;6.30;70.60;;;;;;6254784;28;20131;-77
2021/04/03 01:58:11;;;;;;;11.52;6.85;;;6.20;70.80;;;;;;6254885;28;20396;-76
2021/04/03 02:01:15;;;;;;;11.43;9.02;;;6.00;71.30;;;;;;6258598;28;20128;-76
2021/04/03 02:04:18;;;;;;;11.85;7.10;;;5.90;71.70;;;;;;6254137;28;20131;-76
2021/04/03 02:07:21;;;;;;;12.43;7.45;;;5.80;71.60;;;;;;6257406;28;20118;-77
2021/04/03 02:10:26;;;;;;;13.18;6.93;;;5.70;71.80;;;;;;6254603;28;20057;-77
2021/04/03 02:13:30;;;;;;;10.73;6.55;;;5.60;72.60;;;;;;6260813;28;20162;-77
2021/04/03 02:16:35;;;;;;;10.27;7.68;;;5.50;72.40;;;;;;6255212;28;20480;-77
2021/04/03 02:19:38;;;;;;;15.27;7.38;;;5.40;72.60;;;;;;6262005;28;20099;-76
2021/04/03 02:22:41;;;;;;;17.25;7.72;;;5.30;72.70;;;;;;6262801;28;20070;-77
2021/04/03 02:25:43;;;;;;;11.38;8.32;;;5.20;72.70;;;;;;6246012;28;20182;-77
2021/04/03 02:28:45;;;;;;;9.57;6.53;;;5.00;73.30;;;;;;6254100;28;20049;-76
2021/04/03 02:31:47;;;;;;;13.90;8.13;;;4.90;73.30;;;;;;6260918;28;20202;-76
2021/04/03 02:34:48;;;;;;;10.35;6.90;;;4.80;73.90;;;;;;6253373;28;20543;-77
2021/04/03 02:37:54;;;;;;;14.13;7.72;;;4.80;74.00;;;;;;6255050;28;20049;-77
2021/04/03 02:40:55;;;;;;;8.20;6.78;;;4.70;74.80;;;;;;6262091;28;20150;-77
2021/04/03 02:44:05;;;;;;;13.73;8.07;;;4.80;74.80;;;;;;6259382;28;20073;-76
2021/04/03 02:47:11;;;;;;;13.98;10.30;;;4.70;75.00;;;;;;6261555;28;20451;-77
2021/04/03 02:50:16;;;;;;;10.23;7.22;;;4.60;75.40;;;;;;6258259;28;20153;-77
2021/04/03 02:53:22;;;;;;;17.75;8.00;;;4.60;75.70;;;;;;6261877;28;20554;-76
2021/04/03 02:56:25;;;;;;;14.50;9.60;;;4.50;75.70;;;;;;6261722;28;20049;-77
2021/04/03 02:59:29;;;;;;;9.10;8.15;;;4.50;76.00;;;;;;6261971;28;20132;-77
2021/04/03 03:02:34;;;;;;;10.23;7.57;;;4.40;75.90;;;;;;6261719;28;20076;-76
2021/04/03 03:05:36;;;;;;;11.80;7.88;;;4.40;76.60;;;;;;6261543;28;20049;-76
2021/04/03 03:08:39;;;;;;;12.48;8.45;;;4.30;75.90;;;;;;6253878;28;20069;-75
2021/04/03 03:11:44;;;;;;;11.88;7.88;;;4.40;76.30;;;;;;6245009;28;20053;-76
2021/04/03 03:14:48;;;;;;;12.13;8.60;;;4.40;76.30;;;;;;6254568;28;20080;-76
2021/04/03 03:17:52;;;;;;;13.63;9.50;;;4.40;76.30;;;;;;6261368;28;20132;-76
2021/04/03 03:20:54;;;;;;;15.68;9.45;;;4.40;76.60;;;;;;6269782;28;20079;-76
2021/04/03 03:23:55;;;;;;;13.05;9.30;;;4.40;76.40;;;;;;6259254;28;20135;-77
2021/04/03 03:26:58;;;;;;;13.03;8.07;;;4.40;76.80;;;;;;6256306;28;20049;-76
2021/04/03 03:30:02;;;;;;;8.90;7.57;;;4.40;76.60;;;;;;6250425;28;20136;-76
2021/04/03 03:33:05;;;;;;;10.35;7.72;;;4.50;76.80;;;;;;6261722;28;20052;-76
2021/04/03 03:36:08;;;;;;;12.30;8.10;;;4.60;76.70;;;;;;6256300;28;20131;-76
2021/04/03 03:39:10;;;;;;;13.00;8.07;;;4.60;76.70;;;;;;6265610;28;20413;-77
2021/04/03 03:42:12;;;;;;;13.40;7.23;;;4.70;76.90;;;;;;6265458;28;20517;-77
2021/04/03 03:45:14;;;;;;;11.48;8.45;;;4.70;76.90;;;;;;6261956;28;20081;-76
2021/04/03 03:48:16;;;;;;;15.68;9.30;;;4.70;77.20;;;;;;6256515;28;20064;-76
2021/04/03 03:51:17;;;;;;;11.63;6.87;;;4.70;77.20;;;;;;6252954;28;20095;-76
2021/04/03 03:54:19;;;;;;;11.05;8.60;;;4.60;77.10;;;;;;6253549;28;20054;-76
2021/04/03 03:57:20;;;;;;;10.70;8.68;;;4.80;77.20;;;;;;6244667;28;20087;-76
2021/04/03 04:00:22;;;;;;;11.20;6.80;;;4.70;77.10;;;;;;6254863;28;20203;-76
2021/04/03 04:03:24;;;;;;;16.35;9.57;;;4.70;77.50;;;;;;6262797;28;20049;-76
2021/04/03 04:06:25;;;;;;;10.90;8.35;;;4.70;77.50;;;;;;6251823;28;20084;-76
2021/04/03 04:09:28;;;;;;;12.40;8.48;;;4.80;77.40;;;;;;6255795;28;20099;-76
2021/04/03 04:12:29;;;;;;;11.73;8.57;;;4.80;77.40;;;;;;6258416;28;20120;-76
2021/04/03 04:15:31;;;;;;;10.70;7.57;;;4.80;77.60;;;;;;6256870;28;20041;-76
2021/04/03 04:18:33;;;;;;;12.77;9.00;;;4.80;77.60;;;;;;6257529;28;20057;-75
2021/04/03 04:21:35;;;;;;;12.85;8.05;;;4.80;77.70;;;;;;6264126;28;20144;-76
2021/04/03 04:24:36;;;;;;;11.23;8.13;;;4.80;77.70;;;;;;6257128;28;20574;-76
2021/04/03 04:27:37;;;;;;;12.27;7.85;;;4.70;77.90;;;;;;6256773;28;20135;-76
2021/04/03 04:30:39;;;;;;;10.60;7.30;;;4.70;78.20;;;;;;6273509;28;20087;-76
2021/04/03 04:33:41;;;;;;;17.42;9.48;;;4.80;78.20;;;;;;6257035;28;20121;-75
2021/04/03 04:36:42;;;;;;;13.48;7.82;;;4.80;78.10;;;;;;6255782;28;20179;-77
2021/04/03 04:39:44;;;;;;;10.13;7.63;;;4.80;77.80;;;;;;6264776;28;20049;-76
2021/04/03 04:42:45;;;;;;;12.10;8.20;;;4.80;77.80;;;;;;6256430;28;20164;-76
2021/04/03 04:45:46;;;;;;;9.27;7.95;;;4.80;77.80;;;;;;6257483;28;20521;-76
2021/04/03 04:48:48;;;;;;;13.93;8.85;;;4.90;77.90;;;;;;6263435;28;20523;-77
2021/04/03 04:51:50;;;;;;;11.77;7.72;;;4.90;77.90;;;;;;6264881;28;20045;-77
2021/04/03 04:54:51;;;;;;;16.45;8.05;;;4.80;78.20;;;;;;6256974;28;20128;-77
2021/04/03 04:57:53;;;;;;;9.88;7.10;;;4.80;78.30;;;;;;6256279;28;20041;-77
2021/04/03 05:00:54;;;;;;;14.20;9.63;;;4.80;78.30;;;;;;6248182;28;20076;-76
2021/04/03 05:03:56;;;;;;;21.48;9.57;;;4.80;78.20;;;;;;6258317;28;20407;-76
2021/04/03 05:06:57;;;;;;;16.40;9.00;;;4.80;78.30;;;;;;6257264;28;20049;-77
2021/04/03 05:09:59;;;;;;;16.13;7.65;;;4.80;78.40;;;;;;6269819;28;20045;-77
2021/04/03 05:13:01;;;;;;;10.15;7.47;;;4.80;78.70;;;;;;6259160;28;20085;-76
2021/04/03 05:16:02;;;;;;;10.38;8.25;;;4.80;78.50;;;;;;6253259;28;20128;-76
2021/04/03 05:19:04;;;;;;;9.45;8.45;;;4.80;78.50;;;;;;6268582;28;20135;-77
2021/04/03 05:22:06;;;;;;;17.83;9.55;;;4.80;78.70;;;;;;6269078;28;20501;-78
2021/04/03 05:25:08;;;;;;;13.93;7.60;;;4.80;78.70;;;;;;6251862;28;20135;-77
2021/04/03 05:28:10;;;;;;;15.00;7.78;;;4.80;78.80;;;;;;6260996;28;20487;-77
2021/04/03 05:31:11;;;;;;;9.70;7.85;;;4.80;78.80;;;;;;6268162;28;20092;-76
2021/04/03 05:34:13;;;;;;;14.15;8.68;;;4.80;78.80;;;;;;6252387;28;20492;-76
2021/04/03 05:37:15;;;;;;;15.77;8.45;;;4.90;78.80;;;;;;6256682;28;20497;-76
2021/04/03 05:40:16;;;;;;;14.00;10.50;;;4.90;78.60;;;;;;6262710;28;20053;-78
2021/04/03 05:43:19;;;;;;;20.60;11.43;;;5.00;78.40;;;;;;6263264;28;20135;-77
2021/04/03 05:46:22;;;;;;;15.82;10.95;;;5.10;78.10;;;;;;6258592;28;20056;-77
2021/04/03 05:49:25;;;;;;;20.42;13.38;;;5.30;78.00;;;;;;6254835;28;20049;-77
2021/04/03 05:52:27;;;;;;;11.30;7.65;;;5.40;78.10;;;;;;6254817;28;20503;-77
2021/04/03 05:55:28;;;;;;;15.05;10.48;;;5.50;77.50;;;;;;6256891;28;20076;-77
2021/04/03 05:58:29;;;;;;;17.15;8.80;;;5.70;77.40;;;;;;6262332;28;20076;-77
2021/04/03 06:01:32;;;;;;;13.55;7.80;;;6.00;77.00;;;;;;6256054;28;20076;-77
2021/04/03 06:04:34;;;;;;;10.05;7.30;;;6.40;76.10;;;;;;6256073;28;20700;-78
2021/04/03 06:07:36;;;;;;;9.80;7.35;;;6.80;74.80;;;;;;6252820;28;20080;-78
2021/04/03 06:10:37;;;;;;;10.10;7.18;;;7.00;73.70;;;;;;6259632;28;20056;-78
2021/04/03 06:13:39;;;;;;;13.68;7.32;;;7.10;73.10;;;;;;6264554;28;20060;-76
2021/04/03 06:16:42;;;;;;;7.90;6.05;;;7.30;72.80;;;;;;6263880;28;20055;-76
2021/04/03 06:19:49;;;;;;;15.25;7.47;;;7.40;72.40;;;;;;6255464;28;20084;-77
2021/04/03 06:22:50;;;;;;;9.48;5.13;;;7.60;70.80;;;;;;6261924;28;20486;-78
2021/04/03 06:25:55;;;;;;;7.80;4.95;;;7.90;70.80;;;;;;6266856;28;20102;-78
2021/04/03 06:29:22;;;;;;;7.25;5.18;;;8.10;67.10;;;;;;6266074;28;20120;-78
2021/04/03 06:32:26;;;;;;;11.77;6.05;;;8.30;66.20;;;;;;6271997;28;20131;-78
2021/04/03 06:35:27;;;;;;;7.00;4.57;;;8.40;65.40;;;;;;6262236;28;20069;-78
2021/04/03 06:38:28;;;;;;;10.55;5.30;;;8.60;64.40;;;;;;6268052;28;20148;-78
2021/04/03 06:41:30;;;;;;;10.88;6.13;;;8.80;64.10;;;;;;6276349;28;20586;-78
2021/04/03 06:44:33;;;;;;;10.38;6.80;;;9.10;63.20;;;;;;6262388;28;20061;-78
2021/04/03 06:47:36;;;;;;;6.38;4.68;;;9.20;61.70;;;;;;6266420;28;20098;-78
2021/04/03 06:50:39;;;;;;;11.25;4.93;;;9.30;61.10;;;;;;6269179;28;20116;-78
2021/04/03 06:53:41;;;;;;;9.23;5.53;;;9.40;60.90;;;;;;6266769;28;20095;-78
2021/04/03 06:56:43;;;;;;;12.05;6.20;;;9.70;60.40;;;;;;6252355;28;20076;-78
2021/04/03 06:59:45;;;;;;;14.55;7.00;;;9.80;59.40;;;;;;6267603;28;20194;-78
2021/04/03 07:02:55;;;;;;;9.38;4.70;;;10.00;59.50;;;;;;6258713;28;20057;-80
2021/04/03 07:05:57;;;;;;;5.97;4.22;;;10.20;57.40;;;;;;6287456;23;20653;-77
2021/04/03 07:09:01;;;;;;;6.22;3.80;;;10.30;56.30;;;;;;6259393;28;20430;-76
2021/04/03 07:12:04;;;;;;;4.38;3.00;;;10.40;54.80;;;;;;6262028;28;20052;-78
2021/04/03 07:15:08;;;;;;;9.23;4.15;;;10.50;53.50;;;;;;6255405;28;20084;-77
2021/04/03 07:18:10;;;;;;;5.80;3.65;;;10.50;53.70;;;;;;6255063;28;20082;-77
2021/04/03 07:21:11;;;;;;;3.45;2.97;;;10.50;53.20;;;;;;6262623;28;20159;-77
2021/04/03 07:24:15;;;;;;;7.57;4.22;;;10.60;52.30;;;;;;6246989;28;20129;-77
2021/04/03 07:27:17;;;;;;;5.10;3.17;;;10.50;52.20;;;;;;6271303;28;20061;-77
2021/04/03 07:30:41;;;;;;;4.90;2.75;;;10.50;51.30;;;;;;6254930;28;20077;-77
2021/04/03 07:33:49;;;;;;;7.82;5.88;;;10.60;51.70;;;;;;6271585;28;20134;-77
2021/04/03 07:36:50;;;;;;;6.30;3.92;;;10.70;52.50;;;;;;6265056;28;20069;-77
2021/04/03 07:39:51;;;;;;;6.07;5.05;;;10.90;53.10;;;;;;6256735;28;20084;-78
2021/04/03 07:42:53;;;;;;;11.20;4.43;;;11.20;52.60;;;;;;6268097;28;20049;-77
2021/04/03 07:45:55;;;;;;;6.88;4.05;;;11.30;51.30;;;;;;6258693;28;20067;-77
2021/04/03 07:48:58;;;;;;;7.47;4.18;;;11.40;52.30;;;;;;6269740;28;20053;-77
2021/04/03 07:51:59;;;;;;;6.35;3.88;;;11.90;51.10;;;;;;6264585;28;20059;-77
2021/04/03 07:55:30;;;;;;;6.55;4.07;;;12.40;49.90;;;;;;6256298;28;20100;-77
2021/04/03 07:58:33;;;;;;;9.13;6.35;;;12.50;48.30;;;;;;6257870;28;20079;-77
2021/04/03 08:01:35;;;;;;;5.53;3.42;;;12.40;49.80;;;;;;6254461;28;20053;-78
2021/04/03 08:04:36;;;;;;;7.88;5.47;;;12.90;49.90;;;;;;6265396;28;20472;-78
2021/04/03 08:07:38;;;;;;;8.07;4.72;;;13.60;47.70;;;;;;6265390;28;20049;-78
2021/04/03 08:10:39;;;;;;;9.20;4.07;;;14.10;45.60;;;;;;6262518;28;20053;-78
2021/04/03 08:13:43;;;;;;;8.32;4.63;;;14.40;44.70;;;;;;6271077;28;20049;-79
2021/04/03 08:16:45;;;;;;;6.78;3.95;;;14.60;44.50;;;;;;6265461;28;20046;-79
2021/04/03 08:19:47;;;;;;;8.00;4.43;;;14.60;43.80;;;;;;6277749;28;20045;-79
2021/04/03 08:22:58;;;;;;;5.63;3.83;;;14.10;44.80;;;;;;6259575;28;20080;-79
2021/04/03 08:26:00;;;;;;;8.30;3.72;;;13.80;46.20;;;;;;6278388;28;20105;-77
2021/04/03 08:29:02;;;;;;;5.05;3.72;;;13.70;44.90;;;;;;6272545;28;20080;-77
2021/04/03 08:32:06;;;;;;;7.90;3.80;;;13.40;45.20;;;;;;6264899;28;20080;-78
2021/04/03 08:35:08;;;;;;;10.27;4.10;;;12.90;45.20;;;;;;6264247;28;20099;-78
2021/04/03 08:38:12;;;;;;;8.35;3.50;;;12.40;46.90;;;;;;6273137;28;20134;-75
2021/04/03 08:41:16;;;;;;;9.07;4.63;;;12.10;47.60;;;;;;6248500;28;20085;-77
2021/04/03 08:44:19;;;;;;;8.10;4.10;;;12.20;47.70;;;;;;6267858;28;20061;-77
2021/04/03 08:47:21;;;;;;;5.53;3.38;;;12.40;47.20;;;;;;6265887;28;20077;-76
2021/04/03 08:50:23;;;;;;;8.77;4.07;;;13.00;46.70;;;;;;6263706;28;20051;-77
2021/04/03 08:53:24;;;;;;;5.57;3.33;;;13.60;46.00;;;;;;6275008;28;20069;-78
2021/04/03 08:56:27;;;;;;;4.82;2.95;;;14.20;44.80;;;;;;6265991;28;20486;-77
2021/04/03 08:59:29;;;;;;;3.00;2.63;;;14.30;40.30;;;;;;6275524;28;20448;-78
2021/04/03 09:02:32;;;;;;;9.23;5.18;;;14.00;43.00;;;;;;6267634;28;20148;-78
2021/04/03 09:05:34;;;;;;;6.28;3.75;;;14.40;42.70;;;;;;6271875;28;20048;-78
2021/04/03 09:08:35;;;;;;;5.78;3.10;;;14.80;42.30;;;;;;6272803;28;20513;-78
2021/04/03 09:11:37;;;;;;;5.85;2.55;;;15.20;41.90;;;;;;6270899;28;20048;-78
2021/04/03 09:14:41;;;;;;;6.43;3.25;;;15.50;40.00;;;;;;6255609;28;20142;-78
2021/04/03 09:17:51;;;;;;;5.72;2.75;;;15.40;39.10;;;;;;6261719;28;20121;-78
2021/04/03 09:20:52;;;;;;;2.70;1.98;;;15.30;40.30;;;;;;6262987;28;20447;-78
2021/04/03 09:23:54;;;;;;;3.55;2.78;;;14.90;40.10;;;;;;6271695;28;20049;-78
2021/04/03 09:26:55;;;;;;;4.50;2.20;;;14.90;38.80;;;;;;6288753;28;20136;-76
2021/04/03 09:30:04;;;;;;;5.82;2.58;;;14.40;39.30;;;;;;6273880;28;20132;-76
2021/04/03 09:33:18;;;;;;;5.70;2.72;;;14.30;41.50;;;;;;6268732;28;20071;-76
2021/04/03 09:36:19;;;;;;;10.48;2.97;;;15.00;40.90;;;;;;6274049;28;20049;-78
2021/04/03 09:39:21;;;;;;;7.53;2.95;;;15.10;41.80;;;;;;6276753;28;20059;-76
2021/04/03 09:42:24;;;;;;;3.83;2.30;;;15.70;40.20;;;;;;6254822;28;20080;-78
2021/04/03 09:45:25;;;;;;;3.00;2.30;;;15.20;36.70;;;;;;6260149;28;20101;-78
2021/04/03 09:48:27;;;;;;;4.85;2.83;;;13.90;38.90;;;;;;6254324;28;20049;-79
2021/04/03 09:51:29;;;;;;;3.35;2.35;;;13.00;41.80;;;;;;6269489;28;20441;-78
2021/04/03 09:54:31;;;;;;;6.18;2.95;;;12.50;42.90;;;;;;6253741;28;20126;-77
2021/04/03 09:57:32;;;;;;;5.55;3.92;;;12.80;43.60;;;;;;6264089;28;20056;-78
2021/04/03 10:00:34;;;;;;;4.80;2.47;;;13.30;42.30;;;;;;6266220;28;20045;-76
2021/04/03 10:03:36;;;;;;;3.55;2.70;;;14.00;41.30;;;;;;6270103;28;20079;-78
2021/04/03 10:06:37;;;;;;;2.50;2.30;;;14.40;39.80;;;;;;6257819;28;20153;-78
2021/04/03 10:09:38;;;;;;;2.90;2.00;;;14.90;40.00;;;;;;6261069;28;20052;-78
2021/04/03 10:12:40;;;;;;;4.93;1.73;;;15.50;38.80;;;;;;6265814;28;20052;-78
2021/04/03 10:15:41;;;;;;;6.72;2.40;;;15.80;39.10;;;;;;6253694;28;20051;-78
2021/04/03 10:18:43;;;;;;;2.95;1.63;;;15.60;39.10;;;;;;6269872;28;20060;-77
2021/04/03 10:21:45;;;;;;;4.32;2.03;;;15.30;39.20;;;;;;6266800;28;20064;-77
2021/04/03 10:24:46;;;;;;;2.65;1.98;;;15.40;39.60;;;;;;6269915;28;20049;-78
2021/04/03 10:27:48;;;;;;;6.22;2.10;;;15.80;38.90;;;;;;6271672;28;20049;-77
2021/04/03 10:30:50;;;;;;;6.78;2.05;;;16.50;37.70;;;;;;6269797;28;20075;-76
2021/04/03 10:33:52;;;;;;;4.45;1.95;;;16.40;37.00;;;;;;6275221;28;20181;-77
2021/04/03 10:36:54;;;;;;;7.03;2.10;;;16.30;36.80;;;;;;6278548;28;20076;-77
2021/04/03 10:39:55;;;;;;;6.05;2.47;;;16.00;37.00;;;;;;6259790;28;20045;-78
2021/04/03 10:42:57;;;;;;;4.55;2.90;;;15.90;37.50;;;;;;6265795;28;20049;-77
2021/04/03 10:45:58;;;;;;;7.18;1.77;;;15.90;39.10;;;;;;6252761;28;20124;-78
2021/04/03 10:49:00;;;;;;;8.40;2.08;;;16.10;37.60;;;;;;6252806;28;20462;-77
2021/04/03 10:52:02;;;;;;;5.68;3.15;;;16.20;37.50;;;;;;6274742;28;20485;-78
2021/04/03 10:55:04;;;;;;;2.60;1.90;;;15.90;36.80;;;;;;6265289;28;20129;-78
2021/04/03 10:58:06;;;;;;;3.45;2.90;;;15.40;37.80;;;;;;6260256;28;20077;-77
2021/04/03 11:01:07;;;;;;;4.15;2.10;;;15.10;38.30;;;;;;6265930;28;20210;-77
2021/04/03 11:04:10;;;;;;;4.43;3.13;;;14.70;39.30;;;;;;6273001;28;20044;-77
2021/04/03 11:07:11;;;;;;;7.22;2.35;;;14.30;39.10;;;;;;6249526;28;20050;-77
2021/04/03 11:10:13;;;;;;;5.20;2.25;;;13.70;39.60;;;;;;6278630;28;20052;-76
2021/04/03 11:13:15;;;;;;;5.65;2.17;;;13.30;40.50;;;;;;6280262;28;20037;-78
2021/04/03 11:16:16;;;;;;;2.78;2.17;;;13.40;41.10;;;;;;6270886;28;20072;-79
2021/04/03 11:19:18;;;;;;;5.32;2.22;;;13.80;40.30;;;;;;6273946;28;20046;-79
2021/04/03 11:22:20;;;;;;;6.68;2.83;;;13.60;39.50;;;;;;6288827;28;20091;-76
2021/04/03 11:25:21;;;;;;;10.57;3.10;;;13.10;40.70;;;;;;6281223;28;20041;-78
2021/04/03 11:28:23;;;;;;;3.40;1.95;;;13.30;42.40;;;;;;6270306;28;20056;-79
2021/04/03 11:31:24;;;;;;;6.05;1.90;;;14.30;39.90;;;;;;6269854;28;20049;-78
2021/04/03 11:34:26;;;;;;;2.40;1.85;;;14.90;38.80;;;;;;6274601;28;20069;-80
2021/04/03 11:37:28;;;;;;;2.90;1.85;;;15.30;37.70;;;;;;6264038;28;20045;-78
2021/04/03 11:40:29;;;;;;;4.95;1.80;;;15.40;37.50;;;;;;6269705;28;20076;-80
2021/04/03 11:43:30;;;;;;;2.20;2.00;;;15.50;37.00;;;;;;6267065;28;20049;-79
2021/04/03 11:46:32;;;;;;;3.38;2.08;;;15.10;37.30;;;;;;6267083;28;20536;-79
2021/04/03 11:49:34;;;;;;;5.28;2.50;;;14.90;37.60;;;;;;6270884;28;20075;-79
2021/04/03 11:52:37;;;;;;;3.35;1.95;;;14.80;38.00;;;;;;6269738;28;20147;-80
2021/04/03 11:55:38;;;;;;;1.60;1.42;;;15.20;38.70;;;;;;6272391;28;20053;-78
2021/04/03 11:58:39;;;;;;;3.38;2.72;;;15.70;38.00;;;;;;6268024;28;20191;-78
2021/04/03 12:01:41;;;;;;;4.25;2.17;;;15.80;36.80;;;;;;6263536;28;20060;-78
2021/04/03 12:04:43;;;;;;;17.48;12.13;;;15.60;36.30;;;;;;6263126;28;20048;-79
2021/04/03 12:07:45;;;;;;;3.58;2.70;;;15.20;37.90;;;;;;6260433;28;20499;-79
2021/04/03 12:10:46;;;;;;;5.30;2.13;;;15.40;38.00;;;;;;6273829;28;20049;-79
2021/04/03 12:13:47;;;;;;;3.28;2.47;;;15.90;36.90;;;;;;6263900;28;20484;-78
2021/04/03 12:16:49;;;;;;;4.68;1.92;;;16.20;36.00;;;;;;6262426;28;20056;-78
2021/04/03 12:19:51;;;;;;;2.85;2.08;;;16.10;35.60;;;;;;6272529;28;20125;-78
2021/04/03 12:22:52;;;;;;;8.13;2.20;;;15.80;35.60;;;;;;6275013;28;20091;-78
2021/04/03 12:25:54;;;;;;;2.78;1.50;;;15.00;34.10;;;;;;6278847;28;20041;-77
2021/04/03 12:28:55;;;;;;;3.25;2.30;;;14.20;35.10;;;;;;6273374;28;20053;-78
2021/04/03 12:31:56;;;;;;;4.38;1.77;;;14.00;36.70;;;;;;6264804;28;20056;-77
2021/04/03 12:34:58;;;;;;;4.03;1.88;;;14.40;37.90;;;;;;6265772;28;20051;-79
2021/04/03 12:38:00;;;;;;;4.30;2.35;;;14.80;37.00;;;;;;6273222;28;20133;-79
2021/04/03 12:41:01;;;;;;;2.88;1.98;;;15.30;36.60;;;;;;6271634;28;20052;-79
2021/04/03 12:44:03;;;;;;;4.38;1.85;;;16.00;36.10;;;;;;6269672;28;20041;-76
2021/04/03 12:47:05;;;;;;;5.63;2.22;;;16.50;33.60;;;;;;6263749;28;20124;-78
2021/04/03 12:50:10;;;;;;;3.53;2.38;;;15.90;32.70;;;;;;6273281;28;20132;-79
2021/04/03 12:53:11;;;;;;;28.35;22.00;;;14.90;34.20;;;;;;6263957;28;20053;-78
2021/04/03 12:56:13;;;;;;;6.10;3.13;;;14.50;36.10;;;;;;6264393;28;20081;-77
2021/04/03 12:59:14;;;;;;;6.57;2.55;;;14.60;36.50;;;;;;6276452;28;20566;-78
2021/04/03 13:02:16;;;;;;;3.08;1.38;;;14.60;36.20;;;;;;6255904;28;20049;-78
2021/04/03 13:05:19;;;;;;;4.00;2.60;;;15.00;36.70;;;;;;6272297;28;20079;-77
2021/04/03 13:08:20;;;;;;;3.38;1.40;;;15.20;35.80;;;;;;6258326;28;20593;-78
2021/04/03 13:11:21;;;;;;;8.25;2.00;;;14.90;34.70;;;;;;6257075;28;20050;-77
2021/04/03 13:14:23;;;;;;;2.83;2.38;;;14.50;35.20;;;;;;6267283;28;20088;-76
2021/04/03 13:17:24;;;;;;;3.15;2.67;;;14.00;35.80;;;;;;6263058;28;20079;-76
2021/04/03 13:20:26;;;;;;;2.40;1.73;;;13.50;36.60;;;;;;6256927;28;20544;-76
2021/04/03 13:23:27;;;;;;;2.50;1.30;;;13.40;37.10;;;;;;6257238;28;20132;-76
2021/04/03 13:26:29;;;;;;;2.25;1.25;;;13.50;36.50;;;;;;6257650;28;20562;-77
2021/04/03 13:29:30;;;;;;;2.58;1.73;;;13.70;36.00;;;;;;6259221;28;20088;-77
2021/04/03 13:32:35;;;;;;;2.20;1.70;;;14.00;35.40;;;;;;6279875;28;20029;-78
2021/04/03 13:35:37;;;;;;;2.03;1.60;;;14.10;35.10;;;;;;6294626;28;20048;-78
2021/04/03 13:38:38;;;;;;;2.97;2.08;;;14.10;35.60;;;;;;6259092;28;20025;-78
2021/04/03 13:41:40;;;;;;;4.90;1.35;;;14.10;35.00;;;;;;6267406;28;20816;-78
2021/04/03 13:44:41;;;;;;;2.45;1.75;;;14.00;34.50;;;;;;6260073;28;20124;-78
2021/04/03 13:47:42;;;;;;;4.82;1.30;;;13.90;35.20;;;;;;6265487;28;20061;-78
2021/04/03 13:50:45;;;;;;;5.28;1.50;;;14.10;35.60;;;;;;6275213;28;20038;-78
2021/04/03 13:53:46;;;;;;;3.08;1.52;;;14.20;34.70;;;;;;6259378;28;20038;-76
2021/04/03 13:56:48;;;;;;;4.68;1.77;;;14.20;35.80;;;;;;6265769;28;20080;-77
2021/04/03 13:59:49;;;;;;;3.00;2.00;;;14.50;36.10;;;;;;6254710;28;20136;-77
2021/04/03 14:02:50;;;;;;;5.20;1.33;;;14.90;36.40;;;;;;6263275;28;20072;-77
2021/04/03 14:05:53;;;;;;;4.40;1.63;;;15.40;36.10;;;;;;6273564;28;20483;-77
2021/04/03 14:08:54;;;;;;;3.17;1.33;;;16.00;34.90;;;;;;6272651;28;20490;-77
2021/04/03 14:11:55;;;;;;;8.90;3.60;;;16.50;34.50;;;;;;6251479;28;20077;-78
2021/04/03 14:14:57;;;;;;;4.28;1.27;;;16.90;33.10;;;;;;6262218;28;20049;-75
2021/04/03 14:17:58;;;;;;;4.72;1.60;;;17.10;32.80;;;;;;6262728;28;20139;-74
2021/04/03 14:21:01;;;;;;;4.75;1.55;;;17.00;32.40;;;;;;6257017;28;20069;-77
2021/04/03 14:24:03;;;;;;;5.05;1.70;;;16.60;32.70;;;;;;6262450;28;20045;-77
2021/04/03 14:27:05;;;;;;;5.68;1.58;;;16.40;32.90;;;;;;6260325;28;20072;-78
2021/04/03 14:30:27;;;;;;;8.30;1.48;;;16.10;33.20;;;;;;6255831;28;20127;-76
2021/04/03 14:33:29;;;;;;;4.78;1.70;;;16.00;33.40;;;;;;6251870;28;20054;-76
2021/04/03 14:36:31;;;;;;;3.42;1.40;;;15.90;33.50;;;;;;6246587;28;20092;-77
2021/04/03 14:39:32;;;;;;;5.30;2.50;;;16.00;33.60;;;;;;6247038;28;20045;-78
2021/04/03 14:42:33;;;;;;;5.22;1.95;;;16.10;33.10;;;;;;6265980;28;20136;-77
2021/04/03 14:45:35;;;;;;;7.55;2.60;;;16.00;33.40;;;;;;6253275;28;20041;-77
2021/04/03 14:48:36;;;;;;;3.58;2.65;;;15.90;32.90;;;;;;6246486;28;20045;-76
2021/04/03 14:51:40;;;;;;;4.53;1.67;;;15.30;33.50;;;;;;6254276;28;20061;-78
2021/04/03 14:54:41;;;;;;;2.42;1.30;;;14.60;34.70;;;;;;6263832;28;20155;-78
2021/04/03 14:57:42;;;;;;;5.47;1.65;;;14.10;35.90;;;;;;6245801;28;20041;-77
2021/04/03 15:00:44;;;;;;;6.18;1.35;;;13.80;36.80;;;;;;6250869;28;20045;-77
2021/04/03 15:03:45;;;;;;;5.88;1.75;;;13.60;36.70;;;;;;6257473;28;20123;-78
2021/04/03 15:06:47;;;;;;;3.75;1.67;;;13.40;37.20;;;;;;6251582;28;20168;-77
2021/04/03 15:09:48;;;;;;;3.65;1.30;;;13.30;37.10;;;;;;6257250;28;20093;-77
2021/04/03 15:12:50;;;;;;;7.80;5.03;;;13.40;36.40;;;;;;6251626;28;20166;-78
2021/04/03 15:15:51;;;;;;;3.67;1.90;;;13.70;35.80;;;;;;6257017;28;20045;-77
2021/04/03 15:18:53;;;;;;;6.50;2.20;;;14.00;34.10;;;;;;6246682;28;20646;-77
2021/04/03 15:21:55;;;;;;;4.88;1.63;;;14.00;34.10;;;;;;6254877;28;20073;-76
2021/04/03 15:24:56;;;;;;;1.90;1.33;;;14.00;33.90;;;;;;6246968;28;20123;-77
2021/04/03 15:27:57;;;;;;;8.07;1.98;;;14.00;34.60;;;;;;6262909;28;20518;-78
2021/04/03 15:30:59;;;;;;;2.22;1.30;;;14.20;34.30;;;;;;6246564;28;20132;-77
2021/04/03 15:34:00;;;;;;;2.00;1.45;;;14.20;34.40;;;;;;6262561;28;20056;-78
2021/04/03 15:37:02;;;;;;;4.03;1.27;;;14.10;34.20;;;;;;6246060;28;20129;-76
2021/04/03 15:40:05;;;;;;;2.78;1.38;;;14.00;34.40;;;;;;6254243;28;20132;-77
2021/04/03 15:43:07;;;;;;;2.20;2.00;;;13.80;34.60;;;;;;6253482;28;20137;-77
2021/04/03 15:46:09;;;;;;;1.90;1.25;;;13.60;35.50;;;;;;6259906;28;20047;-77
2021/04/03 15:49:11;;;;;;;4.80;1.98;;;13.60;35.50;;;;;;6247820;28;20524;-78